createdAt,value
2024-02-12T00:00:39.000Z,61.69
2024-02-12T00:03:46.581Z,59.61
2024-02-12T00:06:57.620Z,66.36
2024-02-12T00:10:07.172Z,63.89
2024-02-12T00:13:19.197Z,64.79
2024-02-12T00:16:26.774Z,56.71
2024-02-12T00:19:35.960Z,60.02
2024-02-12T00:22:43.775Z,59.88
2024-02-12T00:25:51.855Z,70.86
2024-02-12T00:29:01.640Z,59.70
2024-02-12T00:32:12.404Z,62.29
2024-02-12T00:35:19.908Z,57.84
2024-02-12T00:38:29.340Z,54.65
2024-02-12T00:41:36.515Z,57.66
2024-02-12T00:44:47.197Z,55.39
2024-02-12T00:47:57.828Z,57.33
2024-02-12T00:51:07.327Z,52.05
2024-02-12T00:54:18.760Z,50.32
2024-02-12T00:57:27.209Z,50.47
2024-02-12T01:00:37.215Z,51.72
2024-02-12T01:03:45.808Z,52.67
2024-02-12T01:06:53.049Z,54.77
2024-02-12T01:10:02.465Z,49.32
2024-02-12T01:13:09.794Z,51.58
2024-02-12T01:16:23.222Z,54.49
2024-02-12T01:19:33.007Z,48.06
2024-02-12T01:22:41.473Z,49.18
2024-02-12T01:25:51.889Z,50.38
2024-02-12T01:28:59.960Z,48.45
2024-02-12T01:32:11.143Z,51.88
2024-02-12T01:35:19.222Z,56.55
2024-02-12T01:38:26.462Z,53.47
2024-02-12T01:41:34.474Z,52.65
2024-02-12T01:44:42.220Z,55.59
2024-02-12T01:47:59.911Z,50.38
2024-02-12T01:51:10.931Z,52.06
2024-02-12T01:54:21.448Z,53.21
2024-02-12T01:57:28.892Z,55.92
2024-02-12T02:00:37.471Z,54.86
2024-02-12T02:03:52.505Z,55.04
2024-02-12T02:07:00.563Z,55.64
2024-02-12T02:10:10.917Z,58.06
2024-02-12T02:13:20.287Z,60.71
2024-02-12T02:16:27.487Z,62.63
2024-02-12T02:19:39.646Z,64.33
2024-02-12T02:22:48.220Z,61.22
2024-02-12T02:26:00.041Z,65.70
2024-02-12T02:29:07.401Z,64.29
2024-02-12T02:32:15.596Z,64.26
2024-02-12T02:35:22.878Z,61.92
2024-02-12T02:38:30.983Z,73.50
2024-02-12T02:41:41.837Z,72.59
2024-02-12T02:44:49.931Z,76.74
2024-02-12T02:47:58.273Z,73.45
2024-02-12T02:51:06.622Z,66.82
2024-02-12T02:54:13.838Z,62.04
2024-02-12T02:57:24.375Z,62.68
2024-02-12T03:00:31.829Z,60.75
2024-02-12T03:03:39.796Z,62.96
2024-02-12T03:06:47.401Z,67.21
2024-02-12T03:09:55.413Z,62.25
2024-02-12T03:13:06.785Z,57.16
2024-02-12T03:16:18.210Z,63.29
2024-02-12T03:19:25.508Z,61.77
2024-02-12T03:22:34.965Z,66.16
2024-02-12T03:25:42.190Z,61.06
2024-02-12T03:28:53.364Z,63.02
2024-02-12T03:32:00.726Z,64.36
2024-02-12T03:35:09.769Z,60.23
2024-02-12T03:38:17.062Z,61.84
2024-02-12T03:41:26.082Z,66.45
2024-02-12T03:44:36.147Z,68.37
2024-02-12T03:47:46.420Z,67.18
2024-02-12T03:51:06.163Z,66.39
2024-02-12T03:54:26.580Z,66.36
2024-02-12T03:57:47.604Z,62.97
2024-02-12T04:00:58.286Z,65.05
2024-02-12T04:04:05.486Z,68.43
2024-02-12T04:07:14.664Z,64.34
2024-02-12T04:10:22.093Z,63.63
2024-02-12T04:13:30.590Z,62.38
2024-02-12T04:16:40.586Z,62.71
2024-02-12T04:19:49.712Z,63.09
2024-02-12T04:22:57.005Z,62.69
2024-02-12T04:26:08.137Z,65.91
2024-02-12T04:29:16.179Z,59.65
2024-02-12T04:32:27.362Z,56.51
2024-02-12T04:35:35.419Z,58.80
2024-02-12T04:38:43.536Z,56.14
2024-02-12T04:41:52.745Z,59.15
2024-02-12T04:45:00.781Z,58.78
2024-02-12T04:48:16.093Z,65.39
2024-02-12T04:51:26.628Z,70.56
2024-02-12T04:54:35.692Z,68.19
2024-02-12T04:57:43.878Z,66.50
2024-02-12T05:00:53.338Z,69.68
2024-02-12T05:04:04.087Z,66.07
2024-02-12T05:07:12.858Z,73.08
2024-02-12T05:10:22.116Z,75.50
2024-02-12T05:13:29.897Z,75.90
2024-02-12T05:16:38.932Z,66.98
2024-02-12T05:20:01.157Z,75.03
2024-02-12T05:23:13.095Z,72.46
2024-02-12T05:26:22.528Z,78.67
2024-02-12T05:29:32.297Z,74.67
2024-02-12T05:32:41.067Z,77.87
2024-02-12T05:35:51.853Z,79.86
2024-02-12T05:38:59.094Z,93.16
2024-02-12T05:42:08.679Z,123.30
2024-02-12T05:45:16.036Z,120.92
2024-02-12T05:48:24.121Z,103.17
2024-02-12T05:51:34.434Z,97.13
2024-02-12T05:54:42.909Z,94.45
2024-02-12T05:57:50.176Z,89.98
2024-02-12T06:00:58.765Z,89.54
2024-02-12T06:04:06.133Z,91.60
2024-02-12T06:07:17.106Z,87.14
2024-02-12T06:10:24.975Z,81.61
2024-02-12T06:13:33.024Z,75.81
2024-02-12T06:16:41.125Z,78.66
2024-02-12T06:19:51.645Z,73.15
2024-02-12T06:23:01.762Z,77.62
2024-02-12T06:26:09.918Z,71.91
2024-02-12T06:29:17.821Z,75.28
2024-02-12T06:32:26.388Z,77.71
2024-02-12T06:35:33.646Z,76.44
2024-02-12T06:38:44.500Z,75.96
2024-02-12T06:41:51.717Z,80.39
2024-02-12T06:44:59.901Z,82.45
2024-02-12T06:48:08.310Z,83.11
2024-02-12T06:51:16.337Z,77.13
2024-02-12T06:54:26.183Z,76.14
2024-02-12T06:57:34.216Z,83.14
2024-02-12T07:00:41.721Z,92.69
2024-02-12T07:03:51.340Z,99.87
2024-02-12T07:06:59.058Z,106.09
2024-02-12T07:10:10.863Z,109.51
2024-02-12T07:13:18.276Z,114.26
2024-02-12T07:16:31.939Z,127.54
2024-02-12T07:19:39.460Z,122.87
2024-02-12T07:22:47.519Z,125.04
2024-02-12T07:25:57.396Z,130.92
2024-02-12T07:29:05.956Z,108.62
2024-02-12T07:32:16.444Z,112.87
2024-02-12T07:35:24.659Z,121.36
2024-02-12T07:38:31.960Z,116.86
2024-02-12T07:41:44.340Z,120.35
2024-02-12T07:44:51.590Z,133.65
2024-02-12T07:48:00.101Z,144.57
2024-02-12T07:51:08.149Z,145.40
2024-02-12T07:54:16.505Z,142.91
2024-02-12T07:57:26.440Z,142.34
2024-02-12T08:00:34.721Z,151.79
2024-02-12T08:03:42.867Z,143.05
2024-02-12T08:06:51.627Z,130.90
2024-02-12T08:10:03.956Z,123.00
2024-02-12T08:13:15.758Z,114.88
2024-02-12T08:16:23.111Z,116.50
2024-02-12T08:19:31.206Z,115.30
2024-02-12T08:22:38.475Z,123.34
2024-02-12T08:25:46.435Z,129.29
2024-02-12T08:28:56.366Z,138.52
2024-02-12T08:32:05.563Z,150.40
2024-02-12T08:35:13.443Z,145.11
2024-02-12T08:38:22.662Z,152.53
2024-02-12T08:41:30.646Z,149.74
2024-02-12T08:44:41.406Z,120.78
2024-02-12T08:47:48.903Z,126.68
2024-02-12T08:50:57.029Z,109.44
2024-02-12T08:54:04.325Z,93.00
2024-02-12T08:57:16.232Z,93.77
2024-02-12T09:00:26.453Z,100.73
2024-02-12T09:03:35.536Z,99.92
2024-02-12T09:06:43.082Z,128.69
2024-02-12T09:09:52.188Z,115.40
2024-02-12T09:13:00.969Z,142.02
2024-02-12T09:16:12.382Z,140.89
2024-02-12T09:19:19.875Z,125.20
2024-02-12T09:22:28.055Z,117.10
2024-02-12T09:25:36.206Z,99.99
2024-02-12T09:28:44.853Z,109.68
2024-02-12T09:31:54.639Z,114.57
2024-02-12T09:35:05.436Z,118.77
2024-02-12T09:38:12.852Z,126.61
2024-02-12T09:41:21.738Z,118.50
2024-02-12T09:44:33.012Z,168.77
2024-02-12T09:47:46.479Z,225.90
2024-02-12T09:50:55.089Z,234.73
2024-02-12T09:54:05.825Z,200.60
2024-02-12T09:57:14.511Z,157.51
2024-02-12T10:00:24.187Z,187.93
2024-02-12T10:03:34.167Z,260.34
2024-02-12T10:06:42.268Z,172.29
2024-02-12T10:09:49.555Z,207.67
2024-02-12T10:12:58.600Z,178.50
2024-02-12T10:16:06.071Z,139.75
2024-02-12T10:19:16.799Z,168.78
2024-02-12T10:22:26.822Z,129.48
2024-02-12T10:25:36.977Z,169.77
2024-02-12T10:28:45.511Z,192.91
2024-02-12T10:31:55.937Z,131.06
2024-02-12T10:35:09.584Z,155.97
2024-02-12T10:38:19.822Z,108.89
2024-02-12T10:41:35.061Z,101.56
2024-02-12T10:44:45.020Z,86.79
2024-02-12T10:47:52.474Z,92.04
2024-02-12T10:51:04.706Z,85.49
2024-02-12T10:54:12.891Z,80.36
2024-02-12T10:57:22.481Z,81.93
2024-02-12T11:00:29.927Z,80.84
2024-02-12T11:03:40.912Z,79.14
2024-02-12T11:06:53.200Z,86.92
2024-02-12T11:10:02.875Z,84.97
2024-02-12T11:13:11.641Z,90.37
2024-02-12T11:16:22.477Z,89.15
2024-02-12T11:19:30.318Z,83.44
2024-02-12T11:22:41.047Z,79.71
2024-02-12T11:25:54.723Z,95.84
2024-02-12T11:29:09.949Z,134.35
2024-02-12T11:32:25.824Z,80.77
2024-02-12T11:35:34.195Z,97.80
2024-02-12T11:38:54.286Z,126.11
2024-02-12T11:42:03.284Z,138.19
2024-02-12T11:45:11.267Z,133.20
2024-02-12T11:48:21.187Z,157.95
2024-02-12T11:51:28.482Z,153.92
2024-02-12T11:54:41.576Z,161.17
2024-02-12T11:57:48.908Z,119.18
2024-02-12T12:00:58.845Z,89.36
2024-02-12T12:04:06.423Z,114.66
2024-02-12T12:07:18.705Z,151.66
2024-02-12T12:10:31.064Z,133.12
2024-02-12T12:13:39.118Z,125.44
2024-02-12T12:17:27.456Z,113.01
2024-02-12T12:20:17.434Z,107.19
2024-02-12T12:23:25.124Z,109.65
2024-02-12T12:26:37.074Z,107.83
2024-02-12T12:29:45.821Z,95.39
2024-02-12T12:32:54.870Z,94.10
2024-02-12T12:36:02.712Z,122.64
2024-02-12T12:39:17.911Z,128.51
2024-02-12T12:42:27.803Z,122.43
2024-02-12T12:45:36.329Z,111.32
2024-02-12T12:48:46.035Z,107.66
2024-02-12T12:51:54.392Z,104.16
2024-02-12T12:55:01.668Z,115.20
2024-02-12T12:58:12.243Z,96.83
2024-02-12T13:01:19.442Z,109.53
2024-02-12T13:04:28.397Z,93.93
2024-02-12T13:07:36.373Z,103.73
2024-02-12T13:10:46.257Z,145.33
2024-02-12T13:13:56.288Z,128.92
2024-02-12T13:17:04.292Z,116.12
2024-02-12T13:20:22.765Z,118.24
2024-02-12T13:23:31.013Z,112.07
2024-02-12T13:26:38.316Z,124.44
2024-02-12T13:29:49.637Z,135.24
2024-02-12T13:32:57.259Z,122.62
2024-02-12T13:36:05.483Z,176.91
2024-02-12T13:39:15.595Z,243.28
2024-02-12T13:42:24.437Z,201.36
2024-02-12T13:45:34.741Z,203.27
2024-02-12T13:48:44.599Z,216.54
2024-02-12T13:51:51.898Z,177.71
2024-02-12T13:55:01.261Z,304.65
2024-02-12T13:58:08.620Z,461.56
2024-02-12T14:01:37.089Z,331.52
2024-02-12T14:04:46.435Z,195.60
2024-02-12T14:07:56.431Z,172.96
2024-02-12T14:11:04.287Z,147.20
2024-02-12T14:14:12.403Z,95.91
2024-02-12T14:17:22.337Z,117.44
2024-02-12T14:20:30.631Z,125.00
2024-02-12T14:23:38.025Z,94.63
2024-02-12T14:26:59.061Z,82.31
2024-02-12T14:30:13.468Z,215.99
2024-02-12T14:33:25.077Z,396.79
2024-02-12T14:36:33.663Z,388.56
2024-02-12T14:39:41.826Z,330.71
2024-02-12T14:42:49.446Z,303.56
2024-02-12T14:45:57.435Z,262.43
2024-02-12T14:49:07.588Z,120.01
2024-02-12T14:52:15.737Z,82.85
2024-02-12T14:55:22.984Z,92.64
2024-02-12T14:58:31.192Z,105.58
2024-02-12T15:01:42.515Z,100.78
2024-02-12T15:04:54.493Z,110.96
2024-02-12T15:08:02.152Z,78.93
2024-02-12T15:11:14.569Z,70.24
2024-02-12T15:14:23.651Z,92.52
2024-02-12T15:17:31.772Z,75.45
2024-02-12T15:20:41.572Z,83.52
2024-02-12T15:23:50.850Z,160.84
2024-02-12T15:26:58.099Z,93.18
2024-02-12T15:30:06.091Z,81.76
2024-02-12T15:33:13.401Z,143.63
2024-02-12T15:36:24.083Z,130.41
2024-02-12T15:39:31.339Z,87.85
2024-02-12T15:42:39.376Z,81.79
2024-02-12T15:45:46.782Z,85.26
2024-02-12T15:48:55.095Z,101.44
2024-02-12T15:52:06.878Z,110.31
2024-02-12T15:55:15.727Z,114.67
2024-02-12T15:58:22.876Z,94.70
2024-02-12T16:01:31.192Z,85.44
2024-02-12T16:04:44.216Z,76.68
2024-02-12T16:07:54.884Z,76.26
2024-02-12T16:11:02.312Z,80.18
2024-02-12T16:14:10.548Z,77.92
2024-02-12T16:17:19.013Z,90.90
2024-02-12T16:20:27.242Z,90.00
2024-02-12T16:23:38.254Z,91.70
2024-02-12T16:26:46.371Z,126.72
2024-02-12T16:29:53.703Z,141.24
2024-02-12T16:33:01.993Z,163.02
2024-02-12T16:36:11.816Z,153.74
2024-02-12T16:39:22.940Z,165.85
2024-02-12T16:42:30.202Z,167.14
2024-02-12T16:45:38.285Z,176.09
2024-02-12T16:48:45.706Z,190.59
2024-02-12T16:51:53.849Z,221.05
2024-02-12T16:55:06.349Z,221.82
2024-02-12T16:58:14.818Z,217.13
2024-02-12T17:01:24.956Z,184.03
2024-02-12T17:04:32.993Z,173.47
2024-02-12T17:07:49.542Z,180.96
2024-02-12T17:11:08.948Z,194.91
2024-02-12T17:14:16.220Z,203.21
2024-02-12T17:17:25.408Z,206.66
2024-02-12T17:20:36.658Z,195.07
2024-02-12T17:23:45.699Z,199.90
2024-02-12T17:26:55.958Z,206.42
2024-02-12T17:30:04.742Z,228.02
2024-02-12T17:33:12.519Z,223.12
2024-02-12T17:36:20.793Z,218.66
2024-02-12T17:39:28.211Z,193.75
2024-02-12T17:42:38.967Z,175.96
2024-02-12T17:45:46.526Z,167.97
2024-02-12T17:48:56.464Z,157.95
2024-02-12T17:52:03.736Z,148.49
2024-02-12T17:55:12.417Z,144.02
2024-02-12T17:58:22.469Z,146.47
2024-02-12T18:01:32.187Z,146.79
2024-02-12T18:04:41.597Z,169.54
2024-02-12T18:07:50.034Z,192.84
2024-02-12T18:10:57.892Z,160.81
2024-02-12T18:14:09.260Z,136.34
2024-02-12T18:17:16.868Z,134.46
2024-02-12T18:20:25.165Z,134.19
2024-02-12T18:23:32.425Z,125.18
2024-02-12T18:26:41.313Z,117.80
2024-02-12T18:29:52.270Z,122.07
2024-02-12T18:33:01.155Z,117.39
2024-02-12T18:36:09.378Z,126.66
2024-02-12T18:39:19.987Z,128.70
2024-02-12T18:42:31.613Z,128.75
2024-02-12T18:45:42.613Z,142.63
2024-02-12T18:48:55.485Z,153.27
2024-02-12T18:52:03.952Z,155.70
2024-02-12T18:55:14.304Z,168.60
2024-02-12T18:58:22.534Z,172.84
2024-02-12T19:01:32.655Z,188.56
2024-02-12T19:04:40.683Z,190.90
2024-02-12T19:07:48.438Z,194.71
2024-02-12T19:10:56.685Z,193.96
2024-02-12T19:14:04.768Z,185.71
2024-02-12T19:17:15.770Z,178.42
2024-02-12T19:20:23.291Z,184.95
2024-02-12T19:23:32.026Z,186.39
2024-02-12T19:26:39.504Z,177.50
2024-02-12T19:29:50.607Z,214.62
2024-02-12T19:33:00.660Z,260.27
2024-02-12T19:36:10.194Z,175.54
2024-02-12T19:39:17.397Z,169.62
2024-02-12T19:42:25.422Z,162.81
2024-02-12T19:45:32.832Z,155.08
2024-02-12T19:48:43.750Z,162.85
2024-02-12T19:51:50.972Z,176.89
2024-02-12T19:55:00.188Z,191.18
2024-02-12T19:58:10.646Z,214.97
2024-02-12T20:01:18.781Z,226.62
2024-02-12T20:04:28.588Z,216.88
2024-02-12T20:07:39.461Z,200.90
2024-02-12T20:10:46.751Z,198.33
2024-02-12T20:13:54.793Z,188.81
2024-02-12T20:17:01.937Z,201.89
2024-02-12T20:20:15.248Z,201.59
2024-02-12T20:23:22.560Z,201.95
2024-02-12T20:26:30.658Z,210.18
2024-02-12T20:29:42.083Z,235.63
2024-02-12T20:32:50.244Z,215.56
2024-02-12T20:36:01.166Z,197.32
2024-02-12T20:39:11.170Z,192.27
2024-02-12T20:42:18.444Z,194.48
2024-02-12T20:45:26.686Z,208.18
2024-02-12T20:48:34.292Z,252.75
2024-02-12T20:51:51.218Z,267.96
2024-02-12T20:54:58.666Z,232.17
2024-02-12T20:58:08.138Z,223.96
2024-02-12T21:01:16.417Z,214.70
2024-02-12T21:04:25.030Z,222.33
2024-02-12T21:07:37.983Z,222.72
2024-02-12T21:10:46.351Z,225.32
2024-02-12T21:13:53.658Z,235.93
2024-02-12T21:17:03.742Z,239.68
2024-02-12T21:20:17.260Z,238.06
2024-02-12T21:23:30.192Z,248.38
2024-02-12T21:26:37.662Z,235.99
2024-02-12T21:29:48.243Z,224.20
2024-02-12T21:32:56.347Z,201.06
2024-02-12T21:36:04.668Z,170.05
2024-02-12T21:39:20.148Z,138.44
2024-02-12T21:42:28.939Z,121.50
2024-02-12T21:45:36.062Z,121.65
2024-02-12T21:48:44.751Z,113.82
2024-02-12T21:51:52.767Z,109.03
2024-02-12T21:55:04.170Z,110.45
2024-02-12T21:58:11.978Z,126.34
2024-02-12T22:01:20.030Z,137.01
2024-02-12T22:04:27.276Z,145.70
2024-02-12T22:07:35.647Z,153.06
2024-02-12T22:10:45.478Z,159.91
2024-02-12T22:13:53.797Z,157.31
2024-02-12T22:17:00.960Z,162.11
2024-02-12T22:20:10.713Z,167.61
2024-02-12T22:23:18.109Z,175.23
2024-02-12T22:26:28.889Z,181.95
2024-02-12T22:29:36.138Z,192.34
2024-02-12T22:32:45.276Z,184.01
2024-02-12T22:35:54.753Z,186.82
2024-02-12T22:39:03.184Z,189.75
2024-02-12T22:42:13.351Z,183.09
2024-02-12T22:45:22.028Z,195.87
2024-02-12T22:48:29.529Z,180.11
2024-02-12T22:51:38.898Z,186.96
2024-02-12T22:54:46.170Z,187.16
2024-02-12T22:57:56.829Z,185.12
2024-02-12T23:01:04.064Z,195.67
2024-02-12T23:04:13.506Z,184.29
2024-02-12T23:07:25.161Z,186.22
2024-02-12T23:10:34.370Z,177.45
2024-02-12T23:13:44.882Z,158.89
2024-02-12T23:16:52.839Z,160.37
2024-02-12T23:20:00.161Z,157.51
2024-02-12T23:23:08.837Z,157.08
2024-02-12T23:26:16.593Z,153.01
2024-02-12T23:29:27.235Z,156.24
2024-02-12T23:32:34.677Z,149.20
2024-02-12T23:35:43.413Z,141.81
2024-02-12T23:38:52.488Z,143.95
2024-02-12T23:42:00.621Z,141.03
2024-02-12T23:45:12.234Z,141.94
2024-02-12T23:48:20.710Z,140.10
2024-02-12T23:51:28.203Z,140.76
2024-02-12T23:54:37.068Z,143.79
2024-02-12T23:57:45.002Z,150.97
